Lonetree, Indiana
Current Conditions -  °F | °C
As of 11:03 AM on Sunday 25 Jan 2015 (Local Time) from KHUF Reporting Station
Light Rain Light Rain  
Wind Chill: 37°   Ceiling: 3400
Heat Index: 37°   Visibility: 2.5mi
Dew Point: 34°   Wind: 0mph
Humidity: 89%   Direction: NA
Pressure: 29.65"   Gusts: NA
Location:  39.2016°N, 87.1874°W
Report Text: KHUF 251603Z AUTO 00000KT 2 1/2SM -RA BR OVC034 03/01 A2965 RMK AO2 P0001 T00280011
Loading
Personal Weather Stations






























Interactive Weather Map New forecast layout! Learn more

10-Day Weather Forecast

Advertisements
Track Severe Weather on mobile